sensor_id;sensor_type;location;lat;lon;timestamp;P1;durP1;ratioP1;P2;durP2;ratioP2
53835;SDS011;39737;43.334;21.936;2023-05-07T00:00:16;4.75;;;2.45;;
53835;SDS011;39737;43.334;21.936;2023-05-07T00:03:07;3.22;;;2.25;;
53835;SDS011;39737;43.334;21.936;2023-05-07T00:05:58;2.72;;;2.25;;
53835;SDS011;39737;43.334;21.936;2023-05-07T00:08:43;6.20;;;2.47;;
53835;SDS011;39737;43.334;21.936;2023-05-07T00:11:30;3.35;;;2.05;;
53835;SDS011;39737;43.334;21.936;2023-05-07T00:14:19;5.10;;;2.13;;
53835;SDS011;39737;43.334;21.936;2023-05-07T00:17:08;5.30;;;2.60;;
53835;SDS011;39737;43.334;21.936;2023-05-07T00:19:57;7.35;;;2.42;;
53835;SDS011;39737;43.334;21.936;2023-05-07T00:22:45;3.70;;;2.42;;
53835;SDS011;39737;43.334;21.936;2023-05-07T00:25:31;2.72;;;2.22;;
53835;SDS011;39737;43.334;21.936;2023-05-07T00:28:18;6.32;;;2.70;;
53835;SDS011;39737;43.334;21.936;2023-05-07T00:31:04;2.72;;;1.98;;
53835;SDS011;39737;43.334;21.936;2023-05-07T00:33:50;2.83;;;2.28;;
53835;SDS011;39737;43.334;21.936;2023-05-07T00:36:36;4.82;;;2.20;;
53835;SDS011;39737;43.334;21.936;2023-05-07T00:39:22;3.40;;;2.63;;
53835;SDS011;39737;43.334;21.936;2023-05-07T00:42:08;4.90;;;2.40;;
53835;SDS011;39737;43.334;21.936;2023-05-07T00:44:55;6.30;;;2.30;;
53835;SDS011;39737;43.334;21.936;2023-05-07T00:47:41;4.20;;;2.20;;
53835;SDS011;39737;43.334;21.936;2023-05-07T00:50:28;4.03;;;2.22;;
53835;SDS011;39737;43.334;21.936;2023-05-07T00:53:15;6.90;;;2.60;;
53835;SDS011;39737;43.334;21.936;2023-05-07T00:56:02;3.75;;;2.65;;
53835;SDS011;39737;43.334;21.936;2023-05-07T00:58:48;2.95;;;2.30;;
53835;SDS011;39737;43.334;21.936;2023-05-07T01:01:35;3.13;;;2.10;;
53835;SDS011;39737;43.334;21.936;2023-05-07T01:04:22;2.63;;;2.08;;
53835;SDS011;39737;43.334;21.936;2023-05-07T01:07:09;3.60;;;2.40;;
53835;SDS011;39737;43.334;21.936;2023-05-07T01:09:56;4.32;;;2.92;;
53835;SDS011;39737;43.334;21.936;2023-05-07T01:12:42;3.13;;;2.47;;
53835;SDS011;39737;43.334;21.936;2023-05-07T01:15:29;3.60;;;2.38;;
53835;SDS011;39737;43.334;21.936;2023-05-07T01:18:15;2.78;;;2.22;;
53835;SDS011;39737;43.334;21.936;2023-05-07T01:21:03;3.38;;;2.25;;
53835;SDS011;39737;43.334;21.936;2023-05-07T01:24:09;3.92;;;2.80;;
53835;SDS011;39737;43.334;21.936;2023-05-07T01:26:55;2.33;;;2.13;;
53835;SDS011;39737;43.334;21.936;2023-05-07T01:29:41;4.43;;;2.80;;
53835;SDS011;39737;43.334;21.936;2023-05-07T01:32:39;3.17;;;2.30;;
53835;SDS011;39737;43.334;21.936;2023-05-07T01:35:28;4.28;;;2.88;;
53835;SDS011;39737;43.334;21.936;2023-05-07T01:38:15;6.65;;;2.38;;
53835;SDS011;39737;43.334;21.936;2023-05-07T01:41:02;2.55;;;2.30;;
53835;SDS011;39737;43.334;21.936;2023-05-07T01:43:50;4.43;;;2.72;;
53835;SDS011;39737;43.334;21.936;2023-05-07T01:46:37;4.03;;;2.40;;
53835;SDS011;39737;43.334;21.936;2023-05-07T01:49:24;5.40;;;3.10;;
53835;SDS011;39737;43.334;21.936;2023-05-07T01:52:10;4.00;;;2.60;;
53835;SDS011;39737;43.334;21.936;2023-05-07T01:54:59;4.13;;;3.00;;
53835;SDS011;39737;43.334;21.936;2023-05-07T01:57:48;9.43;;;3.28;;
53835;SDS011;39737;43.334;21.936;2023-05-07T02:00:34;2.97;;;2.67;;
53835;SDS011;39737;43.334;21.936;2023-05-07T02:03:21;4.65;;;3.05;;
53835;SDS011;39737;43.334;21.936;2023-05-07T02:06:15;6.90;;;3.78;;
53835;SDS011;39737;43.334;21.936;2023-05-07T02:09:01;5.28;;;2.53;;
53835;SDS011;39737;43.334;21.936;2023-05-07T02:11:48;8.93;;;3.25;;
53835;SDS011;39737;43.334;21.936;2023-05-07T02:14:36;8.10;;;3.20;;
53835;SDS011;39737;43.334;21.936;2023-05-07T02:17:25;4.00;;;3.13;;
53835;SDS011;39737;43.334;21.936;2023-05-07T02:20:33;3.92;;;2.78;;
53835;SDS011;39737;43.334;21.936;2023-05-07T02:23:20;4.53;;;3.50;;
53835;SDS011;39737;43.334;21.936;2023-05-07T02:26:06;4.13;;;2.88;;
53835;SDS011;39737;43.334;21.936;2023-05-07T02:28:52;3.75;;;2.90;;
53835;SDS011;39737;43.334;21.936;2023-05-07T02:31:40;4.85;;;3.08;;
53835;SDS011;39737;43.334;21.936;2023-05-07T02:34:26;4.55;;;2.85;;
53835;SDS011;39737;43.334;21.936;2023-05-07T02:37:15;3.70;;;2.55;;
53835;SDS011;39737;43.334;21.936;2023-05-07T02:40:05;9.25;;;2.72;;
53835;SDS011;39737;43.334;21.936;2023-05-07T02:42:52;5.35;;;3.05;;
53835;SDS011;39737;43.334;21.936;2023-05-07T02:45:38;3.92;;;2.90;;
53835;SDS011;39737;43.334;21.936;2023-05-07T02:48:26;2.95;;;2.40;;
53835;SDS011;39737;43.334;21.936;2023-05-07T02:51:14;3.97;;;3.15;;
53835;SDS011;39737;43.334;21.936;2023-05-07T02:54:02;6.50;;;2.85;;
53835;SDS011;39737;43.334;21.936;2023-05-07T02:56:50;4.55;;;2.75;;
53835;SDS011;39737;43.334;21.936;2023-05-07T02:59:37;10.63;;;3.47;;
53835;SDS011;39737;43.334;21.936;2023-05-07T03:02:23;3.85;;;2.55;;
53835;SDS011;39737;43.334;21.936;2023-05-07T03:05:10;3.22;;;2.63;;
53835;SDS011;39737;43.334;21.936;2023-05-07T03:07:56;3.15;;;2.13;;
53835;SDS011;39737;43.334;21.936;2023-05-07T03:10:43;11.77;;;3.15;;
53835;SDS011;39737;43.334;21.936;2023-05-07T03:13:30;6.10;;;2.78;;
53835;SDS011;39737;43.334;21.936;2023-05-07T03:16:19;4.10;;;2.60;;
53835;SDS011;39737;43.334;21.936;2023-05-07T03:19:07;5.80;;;2.70;;
53835;SDS011;39737;43.334;21.936;2023-05-07T03:21:54;4.32;;;2.38;;
53835;SDS011;39737;43.334;21.936;2023-05-07T03:24:47;5.82;;;2.70;;
53835;SDS011;39737;43.334;21.936;2023-05-07T03:27:34;3.85;;;2.75;;
53835;SDS011;39737;43.334;21.936;2023-05-07T03:30:20;7.47;;;3.30;;
53835;SDS011;39737;43.334;21.936;2023-05-07T03:33:06;6.40;;;3.13;;
53835;SDS011;39737;43.334;21.936;2023-05-07T03:35:53;29.45;;;14.30;;
53835;SDS011;39737;43.334;21.936;2023-05-07T03:38:42;21.77;;;8.98;;
53835;SDS011;39737;43.334;21.936;2023-05-07T03:41:28;6.88;;;4.43;;
53835;SDS011;39737;43.334;21.936;2023-05-07T03:44:15;4.20;;;2.97;;
53835;SDS011;39737;43.334;21.936;2023-05-07T03:47:08;9.85;;;2.95;;
53835;SDS011;39737;43.334;21.936;2023-05-07T03:49:55;4.43;;;2.70;;
53835;SDS011;39737;43.334;21.936;2023-05-07T03:52:43;3.40;;;3.10;;
53835;SDS011;39737;43.334;21.936;2023-05-07T03:55:31;8.00;;;2.97;;
53835;SDS011;39737;43.334;21.936;2023-05-07T03:58:18;3.72;;;2.63;;
53835;SDS011;39737;43.334;21.936;2023-05-07T04:01:05;3.40;;;2.45;;
53835;SDS011;39737;43.334;21.936;2023-05-07T04:03:51;3.22;;;2.50;;
53835;SDS011;39737;43.334;21.936;2023-05-07T04:06:40;4.70;;;2.72;;
53835;SDS011;39737;43.334;21.936;2023-05-07T04:09:28;6.97;;;2.45;;
53835;SDS011;39737;43.334;21.936;2023-05-07T04:12:15;6.00;;;2.35;;
53835;SDS011;39737;43.334;21.936;2023-05-07T04:15:01;4.05;;;2.60;;
53835;SDS011;39737;43.334;21.936;2023-05-07T04:17:47;4.80;;;3.60;;
53835;SDS011;39737;43.334;21.936;2023-05-07T04:20:36;5.03;;;3.63;;
53835;SDS011;39737;43.334;21.936;2023-05-07T04:23:26;3.80;;;2.83;;
53835;SDS011;39737;43.334;21.936;2023-05-07T04:26:12;3.50;;;3.00;;
53835;SDS011;39737;43.334;21.936;2023-05-07T04:29:01;6.00;;;4.43;;
53835;SDS011;39737;43.334;21.936;2023-05-07T04:31:51;2.67;;;2.28;;
53835;SDS011;39737;43.334;21.936;2023-05-07T04:34:37;3.35;;;2.58;;
53835;SDS011;39737;43.334;21.936;2023-05-07T04:37:25;9.20;;;3.67;;
53835;SDS011;39737;43.334;21.936;2023-05-07T04:40:12;6.03;;;3.88;;
53835;SDS011;39737;43.334;21.936;2023-05-07T04:43:00;17.75;;;8.20;;
53835;SDS011;39737;43.334;21.936;2023-05-07T04:45:51;13.95;;;6.75;;
53835;SDS011;39737;43.334;21.936;2023-05-07T04:48:40;11.13;;;6.35;;
53835;SDS011;39737;43.334;21.936;2023-05-07T04:51:27;7.85;;;5.47;;
53835;SDS011;39737;43.334;21.936;2023-05-07T04:54:14;5.88;;;3.13;;
53835;SDS011;39737;43.334;21.936;2023-05-07T04:57:03;4.40;;;3.13;;
53835;SDS011;39737;43.334;21.936;2023-05-07T04:59:50;3.38;;;2.60;;
53835;SDS011;39737;43.334;21.936;2023-05-07T05:02:38;4.22;;;3.00;;
53835;SDS011;39737;43.334;21.936;2023-05-07T05:05:25;4.80;;;3.00;;
53835;SDS011;39737;43.334;21.936;2023-05-07T05:08:13;5.28;;;3.40;;
53835;SDS011;39737;43.334;21.936;2023-05-07T05:11:01;4.63;;;2.80;;
53835;SDS011;39737;43.334;21.936;2023-05-07T05:13:50;3.22;;;2.58;;
53835;SDS011;39737;43.334;21.936;2023-05-07T05:16:39;5.25;;;2.90;;
53835;SDS011;39737;43.334;21.936;2023-05-07T05:19:26;7.45;;;4.35;;
53835;SDS011;39737;43.334;21.936;2023-05-07T05:22:14;6.55;;;3.42;;
53835;SDS011;39737;43.334;21.936;2023-05-07T05:25:01;7.38;;;3.80;;
53835;SDS011;39737;43.334;21.936;2023-05-07T05:27:47;4.45;;;3.13;;
53835;SDS011;39737;43.334;21.936;2023-05-07T05:30:34;4.43;;;3.22;;
53835;SDS011;39737;43.334;21.936;2023-05-07T05:33:20;6.80;;;3.40;;
53835;SDS011;39737;43.334;21.936;2023-05-07T05:36:09;6.10;;;3.80;;
53835;SDS011;39737;43.334;21.936;2023-05-07T05:38:56;5.80;;;2.78;;
53835;SDS011;39737;43.334;21.936;2023-05-07T05:41:42;3.92;;;2.63;;
53835;SDS011;39737;43.334;21.936;2023-05-07T05:44:31;4.65;;;3.20;;
53835;SDS011;39737;43.334;21.936;2023-05-07T05:47:21;5.65;;;3.10;;
53835;SDS011;39737;43.334;21.936;2023-05-07T05:50:26;4.60;;;2.65;;
53835;SDS011;39737;43.334;21.936;2023-05-07T05:53:13;2.95;;;2.63;;
53835;SDS011;39737;43.334;21.936;2023-05-07T05:55:59;7.40;;;2.72;;
53835;SDS011;39737;43.334;21.936;2023-05-07T05:58:48;4.40;;;2.78;;
53835;SDS011;39737;43.334;21.936;2023-05-07T06:01:35;10.90;;;4.30;;
53835;SDS011;39737;43.334;21.936;2023-05-07T06:04:41;4.05;;;2.65;;
53835;SDS011;39737;43.334;21.936;2023-05-07T06:07:32;3.38;;;2.70;;
53835;SDS011;39737;43.334;21.936;2023-05-07T06:10:18;16.23;;;6.70;;
53835;SDS011;39737;43.334;21.936;2023-05-07T06:13:08;10.80;;;4.60;;
53835;SDS011;39737;43.334;21.936;2023-05-07T06:15:57;11.48;;;5.25;;
53835;SDS011;39737;43.334;21.936;2023-05-07T06:18:47;4.00;;;2.80;;
53835;SDS011;39737;43.334;21.936;2023-05-07T06:21:34;5.43;;;3.85;;
53835;SDS011;39737;43.334;21.936;2023-05-07T06:24:21;8.75;;;4.20;;
53835;SDS011;39737;43.334;21.936;2023-05-07T06:27:07;6.80;;;4.00;;
53835;SDS011;39737;43.334;21.936;2023-05-07T06:29:53;5.75;;;3.35;;
53835;SDS011;39737;43.334;21.936;2023-05-07T06:32:40;7.47;;;3.50;;
53835;SDS011;39737;43.334;21.936;2023-05-07T06:35:27;4.35;;;3.40;;
53835;SDS011;39737;43.334;21.936;2023-05-07T06:38:23;3.78;;;3.00;;
53835;SDS011;39737;43.334;21.936;2023-05-07T06:41:09;10.98;;;3.72;;
53835;SDS011;39737;43.334;21.936;2023-05-07T06:43:57;4.28;;;3.22;;
53835;SDS011;39737;43.334;21.936;2023-05-07T06:46:55;3.58;;;2.67;;
53835;SDS011;39737;43.334;21.936;2023-05-07T06:49:41;6.72;;;2.25;;
53835;SDS011;39737;43.334;21.936;2023-05-07T06:52:27;6.60;;;2.78;;
53835;SDS011;39737;43.334;21.936;2023-05-07T06:55:14;3.83;;;2.92;;
53835;SDS011;39737;43.334;21.936;2023-05-07T06:58:00;2.78;;;2.40;;
53835;SDS011;39737;43.334;21.936;2023-05-07T07:00:50;6.22;;;2.90;;
53835;SDS011;39737;43.334;21.936;2023-05-07T07:03:37;5.28;;;2.75;;
53835;SDS011;39737;43.334;21.936;2023-05-07T07:06:23;5.78;;;2.72;;
53835;SDS011;39737;43.334;21.936;2023-05-07T07:09:12;4.15;;;2.38;;
53835;SDS011;39737;43.334;21.936;2023-05-07T07:11:59;7.80;;;2.92;;
53835;SDS011;39737;43.334;21.936;2023-05-07T07:14:46;3.75;;;2.70;;
53835;SDS011;39737;43.334;21.936;2023-05-07T07:17:33;7.25;;;3.00;;
53835;SDS011;39737;43.334;21.936;2023-05-07T07:20:20;4.40;;;3.25;;
53835;SDS011;39737;43.334;21.936;2023-05-07T07:23:06;3.30;;;2.53;;
53835;SDS011;39737;43.334;21.936;2023-05-07T07:25:54;3.70;;;2.88;;
53835;SDS011;39737;43.334;21.936;2023-05-07T07:28:44;5.82;;;2.63;;
53835;SDS011;39737;43.334;21.936;2023-05-07T07:31:35;5.03;;;3.25;;
53835;SDS011;39737;43.334;21.936;2023-05-07T07:34:27;5.72;;;2.72;;
53835;SDS011;39737;43.334;21.936;2023-05-07T07:37:13;4.82;;;3.10;;
53835;SDS011;39737;43.334;21.936;2023-05-07T07:40:00;6.85;;;3.42;;
53835;SDS011;39737;43.334;21.936;2023-05-07T07:43:06;3.00;;;2.42;;
53835;SDS011;39737;43.334;21.936;2023-05-07T07:45:52;4.10;;;3.10;;
53835;SDS011;39737;43.334;21.936;2023-05-07T07:48:40;3.35;;;2.60;;
53835;SDS011;39737;43.334;21.936;2023-05-07T07:51:26;4.10;;;2.70;;
53835;SDS011;39737;43.334;21.936;2023-05-07T07:54:17;5.95;;;3.17;;
53835;SDS011;39737;43.334;21.936;2023-05-07T07:57:03;3.08;;;2.75;;
53835;SDS011;39737;43.334;21.936;2023-05-07T07:59:53;3.63;;;2.90;;
53835;SDS011;39737;43.334;21.936;2023-05-07T08:02:39;5.15;;;2.70;;
53835;SDS011;39737;43.334;21.936;2023-05-07T08:05:26;6.50;;;2.78;;
53835;SDS011;39737;43.334;21.936;2023-05-07T08:08:13;4.38;;;2.90;;
53835;SDS011;39737;43.334;21.936;2023-05-07T08:11:00;5.25;;;3.00;;
53835;SDS011;39737;43.334;21.936;2023-05-07T08:13:50;2.35;;;2.10;;
53835;SDS011;39737;43.334;21.936;2023-05-07T08:16:37;2.80;;;2.13;;
53835;SDS011;39737;43.334;21.936;2023-05-07T08:19:23;3.63;;;2.80;;
53835;SDS011;39737;43.334;21.936;2023-05-07T08:22:11;2.70;;;2.40;;
53835;SDS011;39737;43.334;21.936;2023-05-07T08:24:59;8.77;;;2.72;;
53835;SDS011;39737;43.334;21.936;2023-05-07T08:27:46;4.57;;;2.50;;
53835;SDS011;39737;43.334;21.936;2023-05-07T08:30:33;2.92;;;2.17;;
53835;SDS011;39737;43.334;21.936;2023-05-07T08:33:19;4.57;;;2.30;;
53835;SDS011;39737;43.334;21.936;2023-05-07T08:36:06;5.35;;;2.45;;
53835;SDS011;39737;43.334;21.936;2023-05-07T08:38:52;6.40;;;2.75;;
53835;SDS011;39737;43.334;21.936;2023-05-07T08:41:39;2.70;;;2.20;;
53835;SDS011;39737;43.334;21.936;2023-05-07T08:44:29;7.85;;;2.55;;
53835;SDS011;39737;43.334;21.936;2023-05-07T08:47:21;2.15;;;1.85;;
53835;SDS011;39737;43.334;21.936;2023-05-07T08:50:11;2.60;;;1.98;;
53835;SDS011;39737;43.334;21.936;2023-05-07T08:52:58;2.80;;;2.35;;
53835;SDS011;39737;43.334;21.936;2023-05-07T08:55:46;3.40;;;2.28;;
53835;SDS011;39737;43.334;21.936;2023-05-07T08:58:36;3.15;;;2.40;;
53835;SDS011;39737;43.334;21.936;2023-05-07T09:01:26;2.88;;;2.33;;
53835;SDS011;39737;43.334;21.936;2023-05-07T09:04:14;2.92;;;2.00;;
53835;SDS011;39737;43.334;21.936;2023-05-07T09:07:03;5.95;;;2.45;;
53835;SDS011;39737;43.334;21.936;2023-05-07T09:09:58;5.53;;;2.25;;
53835;SDS011;39737;43.334;21.936;2023-05-07T09:12:46;2.67;;;2.05;;
53835;SDS011;39737;43.334;21.936;2023-05-07T09:15:34;2.75;;;2.10;;
53835;SDS011;39737;43.334;21.936;2023-05-07T09:18:24;3.92;;;2.45;;
53835;SDS011;39737;43.334;21.936;2023-05-07T09:21:14;3.40;;;2.47;;
53835;SDS011;39737;43.334;21.936;2023-05-07T09:24:02;2.53;;;1.85;;
53835;SDS011;39737;43.334;21.936;2023-05-07T09:26:59;4.47;;;1.77;;
53835;SDS011;39737;43.334;21.936;2023-05-07T09:29:46;4.07;;;2.47;;
53835;SDS011;39737;43.334;21.936;2023-05-07T09:32:34;5.32;;;2.17;;
53835;SDS011;39737;43.334;21.936;2023-05-07T09:35:24;4.97;;;3.38;;
53835;SDS011;39737;43.334;21.936;2023-05-07T09:38:17;4.80;;;3.55;;
53835;SDS011;39737;43.334;21.936;2023-05-07T09:41:08;5.00;;;2.85;;
53835;SDS011;39737;43.334;21.936;2023-05-07T09:44:25;5.85;;;2.80;;
53835;SDS011;39737;43.334;21.936;2023-05-07T09:47:18;4.47;;;2.33;;
53835;SDS011;39737;43.334;21.936;2023-05-07T09:50:10;2.83;;;2.25;;
53835;SDS011;39737;43.334;21.936;2023-05-07T09:52:58;4.28;;;2.60;;
53835;SDS011;39737;43.334;21.936;2023-05-07T09:55:45;8.75;;;2.63;;
53835;SDS011;39737;43.334;21.936;2023-05-07T09:58:31;3.22;;;2.30;;
53835;SDS011;39737;43.334;21.936;2023-05-07T10:01:18;3.17;;;2.50;;
53835;SDS011;39737;43.334;21.936;2023-05-07T10:04:09;7.57;;;2.90;;
53835;SDS011;39737;43.334;21.936;2023-05-07T10:06:59;4.07;;;2.72;;
53835;SDS011;39737;43.334;21.936;2023-05-07T10:09:51;7.10;;;2.65;;
53835;SDS011;39737;43.334;21.936;2023-05-07T10:12:49;6.90;;;2.47;;
53835;SDS011;39737;43.334;21.936;2023-05-07T10:15:46;6.15;;;2.17;;
53835;SDS011;39737;43.334;21.936;2023-05-07T10:18:35;5.75;;;2.00;;
53835;SDS011;39737;43.334;21.936;2023-05-07T10:21:28;5.75;;;2.17;;
53835;SDS011;39737;43.334;21.936;2023-05-07T10:24:26;4.85;;;2.40;;
53835;SDS011;39737;43.334;21.936;2023-05-07T10:27:13;3.08;;;2.03;;
53835;SDS011;39737;43.334;21.936;2023-05-07T10:30:10;5.53;;;2.28;;
53835;SDS011;39737;43.334;21.936;2023-05-07T10:32:59;10.00;;;2.33;;
53835;SDS011;39737;43.334;21.936;2023-05-07T10:35:58;3.15;;;2.35;;
53835;SDS011;39737;43.334;21.936;2023-05-07T10:38:45;3.90;;;2.63;;
53835;SDS011;39737;43.334;21.936;2023-05-07T10:41:37;3.35;;;2.28;;
53835;SDS011;39737;43.334;21.936;2023-05-07T10:44:25;2.45;;;2.10;;
53835;SDS011;39737;43.334;21.936;2023-05-07T10:47:23;4.00;;;2.47;;
53835;SDS011;39737;43.334;21.936;2023-05-07T10:53:29;2.55;;;1.88;;
53835;SDS011;39737;43.334;21.936;2023-05-07T10:56:26;1.80;;;1.60;;
53835;SDS011;39737;43.334;21.936;2023-05-07T10:59:31;2.50;;;1.90;;
53835;SDS011;39737;43.334;21.936;2023-05-07T11:06:20;2.78;;;2.22;;
53835;SDS011;39737;43.334;21.936;2023-05-07T11:09:13;6.50;;;2.40;;
53835;SDS011;39737;43.334;21.936;2023-05-07T11:12:10;2.67;;;1.77;;
53835;SDS011;39737;43.334;21.936;2023-05-07T11:15:10;2.17;;;1.70;;
53835;SDS011;39737;43.334;21.936;2023-05-07T11:18:00;3.70;;;2.22;;
53835;SDS011;39737;43.334;21.936;2023-05-07T11:20:57;2.53;;;2.10;;
53835;SDS011;39737;43.334;21.936;2023-05-07T11:23:59;2.40;;;1.63;;
53835;SDS011;39737;43.334;21.936;2023-05-07T11:26:57;3.70;;;1.48;;
53835;SDS011;39737;43.334;21.936;2023-05-07T11:29:46;8.02;;;2.63;;
53835;SDS011;39737;43.334;21.936;2023-05-07T11:32:38;3.40;;;2.10;;
53835;SDS011;39737;43.334;21.936;2023-05-07T11:35:27;4.93;;;1.83;;
53835;SDS011;39737;43.334;21.936;2023-05-07T11:38:17;6.65;;;2.00;;
53835;SDS011;39737;43.334;21.936;2023-05-07T11:41:07;1.60;;;1.40;;
53835;SDS011;39737;43.334;21.936;2023-05-07T11:43:56;2.90;;;1.70;;
53835;SDS011;39737;43.334;21.936;2023-05-07T11:46:43;3.45;;;1.73;;
53835;SDS011;39737;43.334;21.936;2023-05-07T11:49:31;4.10;;;1.70;;
53835;SDS011;39737;43.334;21.936;2023-05-07T11:52:19;1.58;;;1.33;;
53835;SDS011;39737;43.334;21.936;2023-05-07T11:55:06;2.47;;;1.60;;
53835;SDS011;39737;43.334;21.936;2023-05-07T11:57:52;2.72;;;1.73;;
53835;SDS011;39737;43.334;21.936;2023-05-07T12:00:47;4.53;;;2.00;;
53835;SDS011;39737;43.334;21.936;2023-05-07T12:03:36;3.65;;;1.95;;
53835;SDS011;39737;43.334;21.936;2023-05-07T12:06:31;1.45;;;1.35;;
53835;SDS011;39737;43.334;21.936;2023-05-07T12:09:19;3.08;;;2.03;;
53835;SDS011;39737;43.334;21.936;2023-05-07T12:12:06;3.53;;;1.67;;
53835;SDS011;39737;43.334;21.936;2023-05-07T12:14:52;2.88;;;1.70;;
53835;SDS011;39737;43.334;21.936;2023-05-07T12:17:38;2.45;;;1.92;;
53835;SDS011;39737;43.334;21.936;2023-05-07T12:20:29;2.95;;;2.00;;
53835;SDS011;39737;43.334;21.936;2023-05-07T12:23:16;2.50;;;1.80;;
53835;SDS011;39737;43.334;21.936;2023-05-07T12:26:03;3.70;;;2.30;;
53835;SDS011;39737;43.334;21.936;2023-05-07T12:28:53;3.30;;;2.00;;
53835;SDS011;39737;43.334;21.936;2023-05-07T12:31:41;4.68;;;1.98;;
53835;SDS011;39737;43.334;21.936;2023-05-07T12:34:31;2.28;;;1.88;;
53835;SDS011;39737;43.334;21.936;2023-05-07T12:37:22;3.40;;;1.60;;
53835;SDS011;39737;43.334;21.936;2023-05-07T12:40:11;7.47;;;1.80;;
53835;SDS011;39737;43.334;21.936;2023-05-07T12:47:04;5.65;;;1.92;;
53835;SDS011;39737;43.334;21.936;2023-05-07T12:50:59;3.80;;;1.55;;
53835;SDS011;39737;43.334;21.936;2023-05-07T12:54:36;3.33;;;1.85;;
53835;SDS011;39737;43.334;21.936;2023-05-07T12:57:26;3.03;;;1.97;;
53835;SDS011;39737;43.334;21.936;2023-05-07T13:00:12;2.95;;;1.98;;
53835;SDS011;39737;43.334;21.936;2023-05-07T13:02:59;3.30;;;1.55;;
53835;SDS011;39737;43.334;21.936;2023-05-07T13:05:45;3.70;;;1.95;;
53835;SDS011;39737;43.334;21.936;2023-05-07T13:08:32;2.28;;;1.40;;
53835;SDS011;39737;43.334;21.936;2023-05-07T13:11:22;1.92;;;1.45;;
53835;SDS011;39737;43.334;21.936;2023-05-07T13:14:08;2.80;;;1.73;;
53835;SDS011;39737;43.334;21.936;2023-05-07T13:16:59;4.22;;;1.73;;
53835;SDS011;39737;43.334;21.936;2023-05-07T13:19:53;2.50;;;1.38;;
53835;SDS011;39737;43.334;21.936;2023-05-07T13:22:39;2.10;;;1.50;;
53835;SDS011;39737;43.334;21.936;2023-05-07T13:25:25;2.33;;;1.58;;
53835;SDS011;39737;43.334;21.936;2023-05-07T13:28:12;2.15;;;1.63;;
53835;SDS011;39737;43.334;21.936;2023-05-07T13:31:00;1.95;;;1.52;;
53835;SDS011;39737;43.334;21.936;2023-05-07T13:33:49;2.65;;;2.15;;
53835;SDS011;39737;43.334;21.936;2023-05-07T13:36:36;3.88;;;1.48;;
53835;SDS011;39737;43.334;21.936;2023-05-07T13:39:25;2.70;;;1.40;;
53835;SDS011;39737;43.334;21.936;2023-05-07T13:42:12;1.65;;;1.55;;
53835;SDS011;39737;43.334;21.936;2023-05-07T13:44:58;5.55;;;1.83;;
53835;SDS011;39737;43.334;21.936;2023-05-07T13:47:46;7.20;;;2.00;;
53835;SDS011;39737;43.334;21.936;2023-05-07T13:50:33;4.10;;;1.92;;
53835;SDS011;39737;43.334;21.936;2023-05-07T13:53:25;3.45;;;1.60;;
53835;SDS011;39737;43.334;21.936;2023-05-07T13:56:11;3.80;;;1.67;;
53835;SDS011;39737;43.334;21.936;2023-05-07T13:59:00;2.70;;;1.95;;
53835;SDS011;39737;43.334;21.936;2023-05-07T14:01:46;4.15;;;2.08;;
53835;SDS011;39737;43.334;21.936;2023-05-07T14:04:33;2.15;;;1.90;;
53835;SDS011;39737;43.334;21.936;2023-05-07T14:07:19;2.85;;;1.88;;
53835;SDS011;39737;43.334;21.936;2023-05-07T14:10:10;4.28;;;2.05;;
53835;SDS011;39737;43.334;21.936;2023-05-07T14:15:45;5.88;;;2.03;;
53835;SDS011;39737;43.334;21.936;2023-05-07T14:18:33;2.83;;;1.73;;
53835;SDS011;39737;43.334;21.936;2023-05-07T14:21:21;1.67;;;1.58;;
53835;SDS011;39737;43.334;21.936;2023-05-07T14:24:07;4.80;;;1.60;;
53835;SDS011;39737;43.334;21.936;2023-05-07T14:26:54;2.35;;;1.80;;
53835;SDS011;39737;43.334;21.936;2023-05-07T14:29:40;3.92;;;2.22;;
53835;SDS011;39737;43.334;21.936;2023-05-07T14:32:29;8.18;;;1.70;;
53835;SDS011;39737;43.334;21.936;2023-05-07T14:35:22;2.13;;;1.67;;
53835;SDS011;39737;43.334;21.936;2023-05-07T14:38:08;5.55;;;1.75;;
53835;SDS011;39737;43.334;21.936;2023-05-07T14:40:58;3.25;;;1.67;;
53835;SDS011;39737;43.334;21.936;2023-05-07T14:43:50;3.60;;;1.77;;
53835;SDS011;39737;43.334;21.936;2023-05-07T14:47:49;4.63;;;2.00;;
53835;SDS011;39737;43.334;21.936;2023-05-07T14:51:01;4.13;;;1.80;;
53835;SDS011;39737;43.334;21.936;2023-05-07T14:53:47;2.38;;;2.00;;
53835;SDS011;39737;43.334;21.936;2023-05-07T14:56:34;3.75;;;1.70;;
53835;SDS011;39737;43.334;21.936;2023-05-07T14:59:23;3.00;;;1.70;;
53835;SDS011;39737;43.334;21.936;2023-05-07T15:02:13;4.82;;;1.80;;
53835;SDS011;39737;43.334;21.936;2023-05-07T15:04:59;2.80;;;1.80;;
53835;SDS011;39737;43.334;21.936;2023-05-07T15:07:48;4.30;;;1.50;;
53835;SDS011;39737;43.334;21.936;2023-05-07T15:11:19;2.65;;;2.10;;
53835;SDS011;39737;43.334;21.936;2023-05-07T15:14:06;3.72;;;1.67;;
53835;SDS011;39737;43.334;21.936;2023-05-07T15:17:02;3.60;;;1.90;;
53835;SDS011;39737;43.334;21.936;2023-05-07T15:19:57;2.17;;;1.67;;
53835;SDS011;39737;43.334;21.936;2023-05-07T15:22:53;2.42;;;1.60;;
53835;SDS011;39737;43.334;21.936;2023-05-07T15:25:44;2.58;;;1.70;;
53835;SDS011;39737;43.334;21.936;2023-05-07T15:28:36;3.22;;;1.90;;
53835;SDS011;39737;43.334;21.936;2023-05-07T15:31:25;2.75;;;1.40;;
53835;SDS011;39737;43.334;21.936;2023-05-07T15:34:11;2.00;;;1.40;;
53835;SDS011;39737;43.334;21.936;2023-05-07T15:37:03;4.57;;;2.38;;
53835;SDS011;39737;43.334;21.936;2023-05-07T15:39:49;2.47;;;1.55;;
53835;SDS011;39737;43.334;21.936;2023-05-07T15:42:50;3.13;;;1.85;;
53835;SDS011;39737;43.334;21.936;2023-05-07T15:45:40;3.10;;;1.73;;
53835;SDS011;39737;43.334;21.936;2023-05-07T15:48:35;1.80;;;1.50;;
53835;SDS011;39737;43.334;21.936;2023-05-07T15:51:21;5.72;;;2.05;;
53835;SDS011;39737;43.334;21.936;2023-05-07T15:54:13;3.88;;;1.52;;
53835;SDS011;39737;43.334;21.936;2023-05-07T16:00:52;4.00;;;2.05;;
53835;SDS011;39737;43.334;21.936;2023-05-07T16:12:31;7.43;;;2.40;;
53835;SDS011;39737;43.334;21.936;2023-05-07T16:15:20;2.40;;;2.08;;
53835;SDS011;39737;43.334;21.936;2023-05-07T16:18:06;2.65;;;1.77;;
53835;SDS011;39737;43.334;21.936;2023-05-07T16:20:55;1.85;;;1.45;;
53835;SDS011;39737;43.334;21.936;2023-05-07T16:23:49;1.88;;;1.55;;
53835;SDS011;39737;43.334;21.936;2023-05-07T16:26:40;2.33;;;1.67;;
53835;SDS011;39737;43.334;21.936;2023-05-07T16:29:26;4.13;;;2.08;;
53835;SDS011;39737;43.334;21.936;2023-05-07T16:32:20;2.22;;;1.90;;
53835;SDS011;39737;43.334;21.936;2023-05-07T16:35:08;3.65;;;1.80;;
53835;SDS011;39737;43.334;21.936;2023-05-07T16:37:58;2.63;;;1.90;;
53835;SDS011;39737;43.334;21.936;2023-05-07T16:40:46;2.22;;;1.58;;
53835;SDS011;39737;43.334;21.936;2023-05-07T16:43:35;2.65;;;1.88;;
53835;SDS011;39737;43.334;21.936;2023-05-07T16:46:37;4.03;;;2.28;;
53835;SDS011;39737;43.334;21.936;2023-05-07T16:49:38;11.73;;;1.90;;
53835;SDS011;39737;43.334;21.936;2023-05-07T16:52:28;7.35;;;1.98;;
53835;SDS011;39737;43.334;21.936;2023-05-07T16:55:20;5.53;;;2.00;;
53835;SDS011;39737;43.334;21.936;2023-05-07T16:58:09;2.13;;;1.90;;
53835;SDS011;39737;43.334;21.936;2023-05-07T17:00:56;3.17;;;2.22;;
53835;SDS011;39737;43.334;21.936;2023-05-07T17:03:42;3.75;;;1.85;;
53835;SDS011;39737;43.334;21.936;2023-05-07T17:06:28;4.95;;;1.70;;
53835;SDS011;39737;43.334;21.936;2023-05-07T17:09:15;7.07;;;1.60;;
53835;SDS011;39737;43.334;21.936;2023-05-07T17:12:04;3.42;;;2.03;;